Time;durP1;ratioP1;P1;durP2;ratioP2;P2;SDS_P1;SDS_P2;PMS_P1;PMS_P2;Temp;Humidity;BMP_temperature;BMP_pressure;BME280_temperature;BME280_humidity;BME280_pressure;Samples;Min_cycle;Max_cycle;Signal;HPM_P1;HPM_P2
2022/09/26 00:02:00;;;;;;;4.20;1.30;;;13.10;99.90;;;;;;5091950;28;20598;-74
2022/09/26 00:04:27;;;;;;;4.72;1.55;;;13.10;99.90;;;;;;5090515;28;20226;-73
2022/09/26 00:06:55;;;;;;;3.08;1.60;;;13.10;99.90;;;;;;5092111;28;20623;-73
2022/09/26 00:09:23;;;;;;;3.00;1.33;;;13.10;99.90;;;;;;5073556;28;20179;-73
2022/09/26 00:11:49;;;;;;;2.85;1.10;;;13.10;99.90;;;;;;5090456;28;20164;-73
2022/09/26 00:14:19;;;;;;;2.53;1.27;;;13.10;99.90;;;;;;5096549;28;20651;-74
2022/09/26 00:16:45;;;;;;;3.80;1.08;;;13.10;99.90;;;;;;5091904;28;20182;-73
2022/09/26 00:19:11;;;;;;;3.65;2.03;;;13.10;99.90;;;;;;5073427;28;20313;-74
2022/09/26 00:21:37;;;;;;;6.10;1.85;;;13.10;99.90;;;;;;5073531;28;20321;-74
2022/09/26 00:24:04;;;;;;;6.57;2.58;;;13.10;99.90;;;;;;5091472;28;20660;-73
2022/09/26 00:26:31;;;;;;;3.28;1.48;;;13.10;99.90;;;;;;5091785;28;20167;-73
2022/09/26 00:28:59;;;;;;;2.65;1.20;;;13.10;99.90;;;;;;5056752;28;20194;-73
2022/09/26 00:31:30;;;;;;;4.13;1.95;;;13.10;99.90;;;;;;5091213;28;20569;-73
2022/09/26 00:33:57;;;;;;;3.72;2.20;;;13.20;99.90;;;;;;5090255;28;20199;-74
2022/09/26 00:36:24;;;;;;;2.67;1.30;;;13.20;99.90;;;;;;5090391;28;20187;-73
2022/09/26 00:38:50;;;;;;;2.78;1.23;;;13.30;99.90;;;;;;5090437;28;20255;-73
2022/09/26 00:41:16;;;;;;;4.50;1.60;;;13.30;99.90;;;;;;5091157;28;20313;-74
2022/09/26 00:43:48;;;;;;;4.85;1.50;;;13.30;99.90;;;;;;5090040;28;20679;-73
2022/09/26 00:46:41;;;;;;;3.17;1.50;;;13.30;99.90;;;;;;5073350;28;20175;-73
2022/09/26 00:49:24;;;;;;;2.60;1.27;;;13.30;99.90;;;;;;5090776;28;20160;-74
2022/09/26 00:51:56;;;;;;;2.45;1.20;;;13.30;99.90;;;;;;5096077;28;20501;-74
2022/09/26 00:54:23;;;;;;;3.85;1.20;;;13.20;99.90;;;;;;5090244;28;20191;-73
2022/09/26 00:56:51;;;;;;;9.35;1.30;;;13.20;99.90;;;;;;5073281;28;20657;-73
2022/09/26 00:59:21;;;;;;;3.28;1.42;;;13.20;99.90;;;;;;5089767;28;20182;-73
2022/09/26 01:01:49;;;;;;;2.17;1.13;;;13.10;99.90;;;;;;5091359;28;20213;-73
2022/09/26 01:04:16;;;;;;;3.05;1.35;;;13.10;99.90;;;;;;5110580;23;20255;-78
2022/09/26 01:06:43;;;;;;;4.90;1.10;;;13.10;99.90;;;;;;5073437;28;20178;-78
2022/09/26 01:09:11;;;;;;;2.90;1.20;;;13.10;99.90;;;;;;5091193;28;20522;-78
2022/09/26 01:11:39;;;;;;;2.28;1.30;;;13.10;99.90;;;;;;5091122;28;20251;-78
2022/09/26 01:14:07;;;;;;;3.60;1.40;;;13.10;99.90;;;;;;5091229;28;20195;-78
2022/09/26 01:16:34;;;;;;;3.88;1.33;;;13.10;99.90;;;;;;5091187;28;20239;-78
2022/09/26 01:19:03;;;;;;;2.70;1.20;;;13.10;99.90;;;;;;5091630;28;20671;-78
2022/09/26 01:21:36;;;;;;;5.07;2.03;;;13.10;99.90;;;;;;5094525;28;20542;-78
2022/09/26 01:24:40;;;;;;;4.22;1.48;;;13.10;99.90;;;;;;5077002;28;20544;-78
2022/09/26 01:27:24;;;;;;;2.33;1.20;;;13.10;99.90;;;;;;5076993;28;20715;-77
2022/09/26 01:30:15;;;;;;;2.83;1.15;;;13.10;99.90;;;;;;5094837;28;20164;-77
2022/09/26 01:33:13;;;;;;;3.35;1.17;;;13.20;99.90;;;;;;5076732;28;20251;-77
2022/09/26 01:36:06;;;;;;;1.50;1.00;;;13.20;99.90;;;;;;5059981;28;20187;-77
2022/09/26 01:39:03;;;;;;;2.55;1.20;;;13.30;99.90;;;;;;5076904;28;20171;-78
2022/09/26 01:41:47;;;;;;;2.15;1.00;;;13.30;99.90;;;;;;5094671;28;20225;-78
2022/09/26 01:44:21;;;;;;;3.08;1.17;;;13.30;99.90;;;;;;5094535;28;20213;-78
2022/09/26 01:47:05;;;;;;;3.08;1.77;;;13.30;99.90;;;;;;5094945;28;20198;-78
2022/09/26 01:49:47;;;;;;;2.10;1.25;;;13.30;99.90;;;;;;5076361;28;20179;-78
2022/09/26 01:52:24;;;;;;;3.75;1.48;;;13.40;99.90;;;;;;5076406;28;20201;-77
2022/09/26 01:55:10;;;;;;;3.25;1.10;;;13.40;99.90;;;;;;5076508;28;20190;-78
2022/09/26 01:57:43;;;;;;;2.00;1.30;;;13.40;99.90;;;;;;5094790;28;20171;-79
2022/09/26 02:00:12;;;;;;;3.35;1.50;;;13.40;99.90;;;;;;5080866;28;20172;-77
2022/09/26 02:02:44;;;;;;;6.35;1.70;;;13.40;99.90;;;;;;5076326;28;20565;-77
2022/09/26 02:05:28;;;;;;;2.45;1.42;;;13.50;99.90;;;;;;5094133;28;20223;-77
2022/09/26 02:08:32;;;;;;;5.13;1.30;;;13.50;99.90;;;;;;5076429;28;20168;-77
2022/09/26 02:11:17;;;;;;;3.03;1.40;;;13.50;99.90;;;;;;5056167;28;20180;-77
2022/09/26 02:13:55;;;;;;;3.13;1.58;;;13.60;99.90;;;;;;5076187;28;20167;-77
2022/09/26 02:16:54;;;;;;;8.52;1.90;;;13.60;99.90;;;;;;5076194;28;20289;-79
2022/09/26 02:19:26;;;;;;;3.70;2.00;;;13.60;99.90;;;;;;5059117;28;20249;-78
2022/09/26 02:21:52;;;;;;;3.13;1.60;;;13.60;99.90;;;;;;5075855;28;20168;-78
2022/09/26 02:24:18;;;;;;;3.55;1.60;;;13.70;99.90;;;;;;5075618;28;20211;-78
2022/09/26 02:26:44;;;;;;;2.03;1.27;;;13.70;99.90;;;;;;5093942;28;20164;-78
2022/09/26 02:29:12;;;;;;;3.93;1.60;;;13.70;99.90;;;;;;5093614;28;20164;-78
2022/09/26 02:31:43;;;;;;;2.30;1.30;;;13.70;99.90;;;;;;5075609;28;20155;-78
2022/09/26 02:34:09;;;;;;;4.75;1.60;;;13.80;99.90;;;;;;5075759;28;20176;-77
2022/09/26 02:36:35;;;;;;;3.33;1.40;;;13.80;99.90;;;;;;5081256;28;20499;-77
2022/09/26 02:39:03;;;;;;;3.25;1.50;;;13.80;99.90;;;;;;5058943;28;20576;-77
2022/09/26 02:41:48;;;;;;;4.97;1.75;;;13.80;99.90;;;;;;5093243;28;20172;-77
2022/09/26 02:44:57;;;;;;;2.15;1.40;;;13.90;99.90;;;;;;5075304;28;20576;-78
2022/09/26 02:47:42;;;;;;;2.85;1.52;;;13.90;99.90;;;;;;5075350;28;20175;-77
2022/09/26 02:50:14;;;;;;;4.95;1.90;;;14.00;99.90;;;;;;5075277;28;20210;-78
2022/09/26 02:52:54;;;;;;;4.97;2.30;;;14.00;99.90;;;;;;5075257;28;20168;-77
2022/09/26 02:55:43;;;;;;;2.50;1.75;;;14.00;99.90;;;;;;5092026;28;20195;-77
2022/09/26 02:58:47;;;;;;;2.03;1.35;;;14.00;99.90;;;;;;5093500;28;20175;-77
2022/09/26 03:01:23;;;;;;;4.72;1.75;;;14.00;99.90;;;;;;5074811;28;20170;-77
2022/09/26 03:03:57;;;;;;;2.40;1.42;;;13.90;99.90;;;;;;5093128;28;20198;-78
2022/09/26 03:06:29;;;;;;;4.03;1.57;;;13.90;99.90;;;;;;5075079;28;20175;-78
2022/09/26 03:08:56;;;;;;;3.85;1.50;;;13.90;99.90;;;;;;5075107;28;20558;-78
2022/09/26 03:11:26;;;;;;;4.37;2.10;;;13.90;99.90;;;;;;5074730;28;20228;-78
2022/09/26 03:13:54;;;;;;;2.97;1.50;;;13.90;99.90;;;;;;5061663;28;20562;-78
2022/09/26 03:16:23;;;;;;;3.72;1.90;;;13.90;99.90;;;;;;5074890;28;20561;-78
2022/09/26 03:19:04;;;;;;;3.47;2.25;;;13.90;99.90;;;;;;5075054;28;20176;-78
2022/09/26 03:21:31;;;;;;;3.92;2.00;;;13.90;99.90;;;;;;5074324;28;20179;-78
2022/09/26 03:23:58;;;;;;;3.35;2.22;;;13.90;99.90;;;;;;5074249;28;20192;-78
2022/09/26 03:26:28;;;;;;;4.40;2.58;;;13.90;99.90;;;;;;5074613;28;20450;-78
2022/09/26 03:28:58;;;;;;;3.65;2.45;;;13.90;99.90;;;;;;5074598;28;20168;-78
2022/09/26 03:31:27;;;;;;;4.00;2.60;;;13.80;99.90;;;;;;5074156;28;20578;-78
2022/09/26 03:33:59;;;;;;;6.28;3.22;;;13.80;99.90;;;;;;5074746;28;20183;-78
2022/09/26 03:36:25;;;;;;;5.72;3.25;;;13.80;99.90;;;;;;5074291;28;20178;-78
2022/09/26 03:38:51;;;;;;;7.93;2.80;;;13.70;99.90;;;;;;5092307;28;20178;-78
2022/09/26 03:41:52;;;;;;;4.60;3.45;;;13.70;99.90;;;;;;5071338;28;20183;-78
2022/09/26 03:44:21;;;;;;;5.80;4.18;;;13.70;99.90;;;;;;5073920;28;20586;-78
2022/09/26 03:47:17;;;;;;;5.93;4.45;;;13.70;99.90;;;;;;5092066;28;20580;-78
2022/09/26 03:49:46;;;;;;;4.70;3.92;;;13.70;99.90;;;;;;5079010;28;20220;-77
2022/09/26 03:52:12;;;;;;;4.33;3.93;;;13.70;99.90;;;;;;5074308;28;20648;-78
2022/09/26 03:54:39;;;;;;;5.60;4.88;;;13.70;99.90;;;;;;5074256;28;20192;-78
2022/09/26 03:57:05;;;;;;;5.57;4.32;;;13.60;99.90;;;;;;5057520;28;20211;-78
2022/09/26 03:59:35;;;;;;;5.68;4.93;;;13.70;99.90;;;;;;5073657;28;20171;-78
2022/09/26 04:02:01;;;;;;;4.75;4.00;;;13.70;99.90;;;;;;5074111;28;20199;-78
2022/09/26 04:04:28;;;;;;;5.55;4.32;;;13.70;99.90;;;;;;5073821;28;20571;-78
2022/09/26 04:06:53;;;;;;;6.40;4.67;;;13.70;99.90;;;;;;5073934;28;20177;-78
2022/09/26 04:09:19;;;;;;;5.80;5.00;;;13.80;99.90;;;;;;5073529;28;20168;-78
2022/09/26 04:11:49;;;;;;;6.22;5.55;;;13.80;99.90;;;;;;5057603;28;20546;-78
2022/09/26 04:14:16;;;;;;;6.00;5.40;;;13.80;99.90;;;;;;5073857;28;20272;-78
2022/09/26 04:16:46;;;;;;;6.05;5.38;;;13.80;99.90;;;;;;5073525;28;20266;-78
2022/09/26 04:19:22;;;;;;;6.60;4.95;;;13.80;99.90;;;;;;5073551;28;20179;-78
2022/09/26 04:21:50;;;;;;;8.77;5.95;;;13.80;99.90;;;;;;5073611;28;20168;-78
2022/09/26 04:24:18;;;;;;;6.45;5.75;;;13.80;99.90;;;;;;5091569;28;20207;-78
2022/09/26 04:26:44;;;;;;;5.67;5.17;;;13.80;99.90;;;;;;5076375;28;20175;-78
2022/09/26 04:29:10;;;;;;;8.47;6.17;;;13.70;99.90;;;;;;5073615;28;20627;-78
2022/09/26 04:31:59;;;;;;;6.10;5.05;;;13.70;99.90;;;;;;5085606;28;20593;-77
2022/09/26 04:34:32;;;;;;;7.55;5.03;;;13.70;99.90;;;;;;5056659;28;20196;-78
2022/09/26 04:36:59;;;;;;;9.57;5.43;;;13.70;99.90;;;;;;5073537;28;20171;-78
2022/09/26 04:39:25;;;;;;;7.07;5.00;;;13.70;99.90;;;;;;5073528;28;20572;-77
2022/09/26 04:41:52;;;;;;;7.47;5.30;;;13.60;99.90;;;;;;5073518;28;20247;-77
2022/09/26 04:44:17;;;;;;;6.57;5.07;;;13.60;99.90;;;;;;5091351;28;20612;-79
2022/09/26 04:46:43;;;;;;;6.57;4.97;;;13.60;99.90;;;;;;5073618;28;20167;-77
2022/09/26 04:49:10;;;;;;;6.00;4.80;;;13.60;99.90;;;;;;5040267;28;20206;-78
2022/09/26 04:51:36;;;;;;;4.60;4.20;;;13.60;99.90;;;;;;5056453;28;20203;-78
2022/09/26 04:54:02;;;;;;;5.85;5.25;;;13.60;99.90;;;;;;5073545;28;20570;-78
2022/09/26 04:56:32;;;;;;;6.70;5.38;;;13.60;99.90;;;;;;5073744;28;20163;-77
2022/09/26 04:58:58;;;;;;;5.57;5.07;;;13.60;99.90;;;;;;5077412;28;20588;-77
2022/09/26 05:01:32;;;;;;;6.78;5.57;;;13.50;99.90;;;;;;5095464;28;20497;-77
2022/09/26 05:04:17;;;;;;;6.25;4.30;;;13.50;99.90;;;;;;5082480;28;20222;-77
2022/09/26 05:06:43;;;;;;;5.23;4.73;;;13.60;99.90;;;;;;5077320;28;20168;-77
2022/09/26 05:09:23;;;;;;;5.60;4.70;;;13.60;99.90;;;;;;5076901;28;20565;-77
2022/09/26 05:11:57;;;;;;;6.55;5.25;;;13.60;99.90;;;;;;5060397;28;20177;-77
2022/09/26 05:14:23;;;;;;;5.70;4.33;;;13.60;99.90;;;;;;5077246;28;20187;-77
2022/09/26 05:16:49;;;;;;;5.25;4.68;;;13.50;99.90;;;;;;5077110;28;20505;-78
2022/09/26 05:19:16;;;;;;;4.75;4.30;;;13.60;99.90;;;;;;5059998;28;20270;-77
2022/09/26 05:21:57;;;;;;;7.03;5.20;;;13.50;99.90;;;;;;5076720;28;20175;-78
2022/09/26 05:27:07;;;;;;;7.65;5.05;;;13.50;99.90;;;;;;5076931;28;20178;-78
2022/09/26 05:29:33;;;;;;;5.78;5.05;;;13.50;99.90;;;;;;5076590;28;20724;-78
2022/09/26 05:32:03;;;;;;;11.27;6.45;;;13.50;99.90;;;;;;5076860;28;20168;-78
2022/09/26 05:34:34;;;;;;;5.03;4.53;;;13.50;99.90;;;;;;5076851;28;20326;-78
2022/09/26 05:37:00;;;;;;;6.80;5.20;;;13.50;99.90;;;;;;5076967;28;20191;-77
2022/09/26 05:42:12;;;;;;;5.22;4.25;;;13.50;99.90;;;;;;5067140;28;20202;-78
2022/09/26 05:44:38;;;;;;;6.70;5.50;;;13.50;99.90;;;;;;5080653;28;20251;-78
2022/09/26 05:47:04;;;;;;;5.63;4.32;;;13.50;99.90;;;;;;5079295;28;20160;-78
2022/09/26 05:49:31;;;;;;;5.50;4.90;;;13.50;99.90;;;;;;5078082;28;20164;-78
2022/09/26 05:51:57;;;;;;;6.47;4.70;;;13.60;99.90;;;;;;5076669;28;20167;-78
2022/09/26 05:54:23;;;;;;;7.87;5.80;;;13.70;99.90;;;;;;5076249;28;20202;-78
2022/09/26 05:56:52;;;;;;;7.05;4.97;;;13.70;99.90;;;;;;5059760;28;20911;-78
2022/09/26 05:59:43;;;;;;;6.18;4.45;;;13.70;99.90;;;;;;5076163;28;20267;-79
2022/09/26 06:02:24;;;;;;;4.82;3.83;;;13.80;99.90;;;;;;5094462;28;20180;-77
2022/09/26 06:05:10;;;;;;;5.63;4.93;;;13.90;99.90;;;;;;5093262;28;20235;-77
2022/09/26 06:07:36;;;;;;;7.20;4.57;;;13.80;99.90;;;;;;5093950;28;20241;-77
2022/09/26 06:10:06;;;;;;;5.18;4.07;;;13.90;99.90;;;;;;5059237;28;21279;-77
2022/09/26 06:13:07;;;;;;;4.57;3.23;;;13.90;99.90;;;;;;5084652;28;20206;-77
2022/09/26 06:16:05;;;;;;;4.57;3.25;;;14.00;99.90;;;;;;5078635;28;20617;-79
2022/09/26 06:18:35;;;;;;;6.90;3.90;;;14.00;99.90;;;;;;5098931;28;20166;-78
2022/09/26 06:21:06;;;;;;;3.90;2.90;;;14.00;99.90;;;;;;5059855;28;21128;-79
2022/09/26 06:23:33;;;;;;;6.20;3.57;;;14.10;99.90;;;;;;5075792;28;20617;-79
2022/09/26 06:26:01;;;;;;;5.70;3.87;;;14.10;99.90;;;;;;5092749;28;20594;-79
2022/09/26 06:28:28;;;;;;;6.43;4.27;;;14.20;99.90;;;;;;5075787;28;20940;-78
2022/09/26 06:30:55;;;;;;;3.40;3.10;;;14.20;99.90;;;;;;5058645;28;20574;-78
2022/09/26 06:33:41;;;;;;;6.40;3.60;;;14.20;99.90;;;;;;5093787;28;20689;-79
2022/09/26 06:36:21;;;;;;;6.47;3.53;;;14.30;99.90;;;;;;5093796;28;20616;-79
2022/09/26 06:38:49;;;;;;;5.07;3.20;;;14.40;99.90;;;;;;5075406;28;20608;-79
2022/09/26 06:41:16;;;;;;;4.67;3.13;;;14.60;99.90;;;;;;5058915;28;21131;-79
2022/09/26 06:43:44;;;;;;;4.50;3.50;;;14.70;99.90;;;;;;5093376;28;20617;-78
2022/09/26 06:46:30;;;;;;;4.83;2.93;;;14.80;99.90;;;;;;5093674;28;20546;-79
2022/09/26 06:49:09;;;;;;;3.73;2.37;;;14.90;99.90;;;;;;5060982;28;20601;-79
2022/09/26 06:51:47;;;;;;;4.03;2.90;;;15.10;99.90;;;;;;5075323;28;21008;-79
2022/09/26 06:54:15;;;;;;;3.57;2.30;;;15.20;99.90;;;;;;5092256;28;20605;-79
2022/09/26 06:56:40;;;;;;;2.93;2.50;;;15.30;99.90;;;;;;5079411;28;21109;-79
2022/09/26 06:59:07;;;;;;;2.80;1.57;;;15.40;99.90;;;;;;5075341;28;20164;-77
2022/09/26 07:01:36;;;;;;;2.80;2.10;;;15.60;99.90;;;;;;5058243;28;20168;-77
2022/09/26 07:04:17;;;;;;;2.70;1.73;;;15.70;99.90;;;;;;5074834;28;20732;-77
2022/09/26 07:06:58;;;;;;;3.97;2.13;;;15.90;99.90;;;;;;5060861;28;20569;-73
2022/09/26 07:09:24;;;;;;;3.93;2.10;;;16.00;99.90;;;;;;5057830;28;21136;-73
2022/09/26 07:11:55;;;;;;;2.37;1.50;;;16.10;99.90;;;;;;5074560;28;20965;-73
2022/09/26 07:14:22;;;;;;;3.80;1.90;;;16.10;99.90;;;;;;5091240;28;20713;-73
2022/09/26 07:16:55;;;;;;;3.63;1.80;;;16.10;99.90;;;;;;5074764;28;20184;-73
2022/09/26 07:19:43;;;;;;;3.20;1.77;;;16.10;99.90;;;;;;5073566;28;20584;-73
2022/09/26 07:22:29;;;;;;;2.60;1.30;;;16.20;99.90;;;;;;5092365;28;21148;-74
2022/09/26 07:24:55;;;;;;;2.27;1.40;;;16.20;99.90;;;;;;5074347;28;20639;-73
2022/09/26 07:27:21;;;;;;;3.00;1.60;;;16.10;99.90;;;;;;5074417;28;20156;-73
2022/09/26 07:29:47;;;;;;;3.00;1.67;;;16.10;99.90;;;;;;5074248;28;20182;-73
2022/09/26 07:32:15;;;;;;;3.60;1.40;;;16.10;99.90;;;;;;5078914;28;20588;-73
2022/09/26 07:34:58;;;;;;;2.00;1.33;;;16.10;99.90;;;;;;5074371;28;20644;-73
2022/09/26 07:37:25;;;;;;;2.63;1.30;;;16.10;99.90;;;;;;5057601;28;21144;-73
2022/09/26 07:39:53;;;;;;;2.13;1.37;;;16.20;99.90;;;;;;5057594;28;20576;-72
2022/09/26 07:42:20;;;;;;;2.40;1.30;;;16.20;99.90;;;;;;5074246;28;20628;-73
2022/09/26 07:44:46;;;;;;;3.03;1.13;;;16.30;99.90;;;;;;5092157;28;21037;-73
2022/09/26 07:50:11;;;;;;;2.00;1.13;;;16.30;99.90;;;;;;5073958;28;20615;-73
2022/09/26 07:53:01;;;;;;;2.23;1.17;;;16.30;99.90;;;;;;5077267;28;20565;-72
2022/09/26 07:55:27;;;;;;;3.80;1.50;;;16.40;99.90;;;;;;5091982;28;20586;-72
2022/09/26 07:58:17;;;;;;;2.27;1.10;;;16.40;99.90;;;;;;5073939;28;20574;-72
2022/09/26 08:00:54;;;;;;;7.00;1.50;;;16.30;99.90;;;;;;5073799;28;20656;-72
2022/09/26 08:03:41;;;;;;;2.23;1.20;;;16.30;99.90;;;;;;5060064;28;20690;-72
2022/09/26 08:06:19;;;;;;;2.50;1.00;;;16.30;99.90;;;;;;5058509;28;20649;-73
2022/09/26 08:08:46;;;;;;;2.10;1.37;;;16.30;99.90;;;;;;5074780;28;20558;-73
2022/09/26 08:11:30;;;;;;;2.93;1.50;;;16.40;99.90;;;;;;5091685;28;20557;-72
2022/09/26 08:14:28;;;;;;;2.60;0.90;;;16.40;99.90;;;;;;5074667;28;20625;-73
2022/09/26 08:17:18;;;;;;;2.23;0.80;;;16.30;99.90;;;;;;5073753;28;20599;-72
2022/09/26 08:19:44;;;;;;;2.60;0.70;;;16.30;99.90;;;;;;5073288;28;20570;-73
2022/09/26 08:22:10;;;;;;;1.47;0.70;;;16.20;99.90;;;;;;5073531;28;20570;-72
2022/09/26 08:24:43;;;;;;;4.00;0.70;;;16.20;99.90;;;;;;5056784;28;20740;-73
2022/09/26 08:27:31;;;;;;;1.67;0.73;;;16.20;99.90;;;;;;5056905;28;21156;-73
2022/09/26 08:29:57;;;;;;;2.10;0.80;;;16.10;99.90;;;;;;5073303;28;20570;-72
2022/09/26 08:32:23;;;;;;;2.57;0.70;;;16.10;99.90;;;;;;5073345;28;21017;-73
2022/09/26 08:34:51;;;;;;;2.70;1.10;;;16.10;99.90;;;;;;5073468;28;20701;-72
2022/09/26 08:37:36;;;;;;;2.40;1.27;;;16.10;99.90;;;;;;5091537;28;20249;-72
2022/09/26 08:40:26;;;;;;;9.63;1.23;;;16.00;99.90;;;;;;5091345;28;20561;-73
2022/09/26 08:43:28;;;;;;;5.10;0.80;;;16.00;99.90;;;;;;5091333;28;20686;-72
2022/09/26 08:47:00;;;;;;;1.90;0.80;;;15.90;99.90;;;;;;5054302;28;20598;-72
2022/09/26 08:49:59;;;;;;;2.87;0.80;;;15.90;99.90;;;;;;5052807;28;20677;-73
2022/09/26 08:52:50;;;;;;;2.27;0.90;;;15.90;99.90;;;;;;5073168;28;20561;-73
2022/09/26 08:55:29;;;;;;;3.03;0.80;;;15.90;99.90;;;;;;5091173;28;20601;-72
2022/09/26 08:58:00;;;;;;;3.00;0.80;;;15.80;99.90;;;;;;5073266;28;21264;-72
2022/09/26 09:00:31;;;;;;;3.03;0.90;;;15.80;99.90;;;;;;5091055;28;20561;-72
2022/09/26 09:03:09;;;;;;;3.70;0.80;;;15.80;99.90;;;;;;5072960;28;20678;-72
2022/09/26 09:05:39;;;;;;;2.93;0.90;;;15.80;99.90;;;;;;5073140;28;20621;-72
2022/09/26 09:08:24;;;;;;;4.00;0.80;;;15.80;99.90;;;;;;5073416;28;20605;-72
2022/09/26 09:11:41;;;;;;;4.20;1.03;;;15.70;99.90;;;;;;5072646;28;20600;-72
2022/09/26 09:14:48;;;;;;;1.70;0.77;;;15.70;99.90;;;;;;5073163;28;20573;-72
2022/09/26 09:17:50;;;;;;;1.60;0.87;;;15.60;99.90;;;;;;5091296;28;20989;-72
2022/09/26 09:20:55;;;;;;;2.27;1.00;;;15.60;99.90;;;;;;5055920;28;20580;-72
2022/09/26 09:23:48;;;;;;;2.10;0.90;;;15.50;99.90;;;;;;5094572;28;20617;-72
2022/09/26 09:26:32;;;;;;;1.50;0.77;;;15.50;99.90;;;;;;5056307;28;20605;-72
2022/09/26 09:29:32;;;;;;;2.03;1.00;;;15.40;99.90;;;;;;5073011;28;20573;-72
2022/09/26 09:32:43;;;;;;;1.80;0.87;;;15.40;99.90;;;;;;5002458;28;20617;-73
2022/09/26 09:35:38;;;;;;;2.57;0.93;;;15.30;99.90;;;;;;5083159;28;20621;-71
2022/09/26 09:38:25;;;;;;;1.80;1.10;;;15.30;99.90;;;;;;5073036;28;20631;-71
2022/09/26 09:41:24;;;;;;;2.20;1.00;;;15.20;99.90;;;;;;5072642;28;20577;-73
2022/09/26 09:44:00;;;;;;;4.67;1.17;;;15.10;99.90;;;;;;5074796;28;20200;-72
2022/09/26 09:46:31;;;;;;;2.73;1.20;;;15.10;99.90;;;;;;5076427;28;21286;-73
2022/09/26 09:49:08;;;;;;;2.73;1.33;;;15.10;99.90;;;;;;5076388;28;20584;-72
2022/09/26 09:52:06;;;;;;;2.33;1.30;;;15.10;99.90;;;;;;5094251;28;20569;-72
2022/09/26 09:54:54;;;;;;;2.60;1.02;;;15.10;99.90;;;;;;5076317;28;20964;-72
2022/09/26 09:57:44;;;;;;;1.97;0.80;;;15.10;99.90;;;;;;5076356;28;20174;-72
2022/09/26 10:00:23;;;;;;;3.08;0.85;;;15.00;99.90;;;;;;5077615;28;20570;-71
2022/09/26 10:03:25;;;;;;;2.73;1.10;;;15.00;99.90;;;;;;5076107;28;20555;-72
2022/09/26 10:06:00;;;;;;;2.10;0.90;;;14.90;99.90;;;;;;5076033;28;21090;-72
2022/09/26 10:08:34;;;;;;;2.00;1.17;;;14.90;99.90;;;;;;5092973;28;20599;-73
2022/09/26 10:11:40;;;;;;;2.80;1.00;;;14.90;99.90;;;;;;5093468;28;20594;-73
2022/09/26 10:14:39;;;;;;;2.90;0.93;;;14.90;99.90;;;;;;5093981;28;21021;-73
2022/09/26 10:17:31;;;;;;;3.37;1.40;;;14.80;99.90;;;;;;5093851;28;20679;-73
2022/09/26 10:20:34;;;;;;;2.10;1.00;;;14.70;99.90;;;;;;5061426;28;20595;-73
2022/09/26 10:23:02;;;;;;;2.20;1.10;;;14.70;99.90;;;;;;5050674;28;20939;-72
2022/09/26 10:25:28;;;;;;;1.80;0.80;;;14.70;99.90;;;;;;5092536;28;20597;-72
2022/09/26 10:27:56;;;;;;;1.80;0.90;;;14.70;99.90;;;;;;5075951;28;20515;-73
2022/09/26 10:30:31;;;;;;;2.33;1.00;;;14.70;99.90;;;;;;5058764;28;20933;-73
2022/09/26 10:33:04;;;;;;;3.50;0.83;;;14.70;99.90;;;;;;5077749;28;20581;-72
2022/09/26 10:35:50;;;;;;;1.60;0.90;;;14.60;99.90;;;;;;5063009;28;20609;-72
2022/09/26 10:38:26;;;;;;;1.60;0.90;;;14.60;99.90;;;;;;5076071;28;20589;-72
2022/09/26 10:41:25;;;;;;;2.00;1.00;;;14.70;99.90;;;;;;5062772;28;20952;-72
2022/09/26 10:43:54;;;;;;;2.00;1.10;;;14.60;99.90;;;;;;5075123;28;20621;-72
2022/09/26 10:46:57;;;;;;;3.00;1.40;;;14.70;99.90;;;;;;5093254;28;21088;-72
2022/09/26 10:50:09;;;;;;;2.27;1.20;;;14.70;99.90;;;;;;5060666;28;20653;-72
2022/09/26 10:53:00;;;;;;;2.63;0.93;;;14.70;99.90;;;;;;5093037;28;21101;-72
2022/09/26 10:55:39;;;;;;;4.27;1.30;;;14.80;99.90;;;;;;5075183;28;20596;-72
2022/09/26 10:58:08;;;;;;;5.13;1.10;;;14.80;99.90;;;;;;5093258;28;20576;-72
2022/09/26 11:00:36;;;;;;;4.53;1.63;;;14.80;99.90;;;;;;5074629;28;21172;-72
2022/09/26 11:03:06;;;;;;;2.75;1.00;;;14.90;99.90;;;;;;5074748;28;20628;-72
2022/09/26 11:05:58;;;;;;;4.33;1.30;;;15.00;99.90;;;;;;5058235;28;20199;-72
2022/09/26 11:08:32;;;;;;;4.77;1.20;;;15.00;99.90;;;;;;5074616;28;20590;-72
2022/09/26 11:11:14;;;;;;;1.60;0.77;;;15.10;99.90;;;;;;5074286;28;21144;-72
2022/09/26 11:14:05;;;;;;;2.73;1.17;;;15.30;99.90;;;;;;5074861;28;20653;-72
2022/09/26 11:16:53;;;;;;;3.17;1.10;;;15.30;99.90;;;;;;5075319;28;20676;-72
2022/09/26 11:19:48;;;;;;;3.20;1.10;;;15.30;99.90;;;;;;5057795;28;20927;-73
2022/09/26 11:22:37;;;;;;;1.70;0.87;;;15.30;99.90;;;;;;5074463;28;20577;-73
2022/09/26 11:25:17;;;;;;;2.55;1.23;;;15.30;99.90;;;;;;5074330;28;20709;-72
2022/09/26 11:28:22;;;;;;;2.10;1.00;;;15.30;99.90;;;;;;5077645;28;20179;-72
2022/09/26 11:31:34;;;;;;;2.83;0.90;;;15.40;99.90;;;;;;5092551;28;20619;-72
2022/09/26 11:34:31;;;;;;;3.83;1.00;;;15.40;99.90;;;;;;5092116;28;20699;-73
2022/09/26 11:37:44;;;;;;;3.30;0.83;;;15.50;99.90;;;;;;5074310;28;20597;-73
2022/09/26 11:40:23;;;;;;;1.53;0.80;;;15.60;99.90;;;;;;5073849;28;20668;-73
2022/09/26 11:43:16;;;;;;;2.37;1.07;;;15.70;99.90;;;;;;5073830;28;20661;-73
2022/09/26 11:46:03;;;;;;;1.90;0.90;;;15.80;99.90;;;;;;5074051;28;20627;-73
2022/09/26 11:48:58;;;;;;;2.30;0.97;;;16.00;99.90;;;;;;5092369;28;20569;-72
2022/09/26 11:51:42;;;;;;;1.60;0.70;;;16.10;99.90;;;;;;5094234;28;20661;-73
2022/09/26 11:54:22;;;;;;;2.80;0.80;;;16.30;99.90;;;;;;5073987;28;20668;-72
2022/09/26 11:57:20;;;;;;;1.50;0.70;;;16.40;99.90;;;;;;5092019;28;20647;-73
2022/09/26 12:00:05;;;;;;;1.53;0.73;;;16.50;99.90;;;;;;5091784;28;21003;-72
2022/09/26 12:03:08;;;;;;;2.50;0.83;;;16.60;99.90;;;;;;5091772;28;20961;-72
2022/09/26 12:05:53;;;;;;;1.83;0.70;;;16.70;99.90;;;;;;5089943;28;21094;-72
2022/09/26 12:08:45;;;;;;;4.77;1.07;;;16.70;99.90;;;;;;5091851;28;20588;-73
2022/09/26 12:11:23;;;;;;;1.93;0.70;;;16.80;99.90;;;;;;5073231;28;21156;-73
2022/09/26 12:14:13;;;;;;;3.70;1.30;;;16.80;99.90;;;;;;5091741;28;20574;-72
2022/09/26 12:17:07;;;;;;;3.03;0.70;;;16.90;99.90;;;;;;5057085;28;20578;-72
2022/09/26 12:19:38;;;;;;;2.27;0.80;;;16.90;99.90;;;;;;5091185;28;20565;-72
2022/09/26 12:22:29;;;;;;;1.87;0.60;;;16.90;99.90;;;;;;5091654;28;20562;-72
2022/09/26 12:25:21;;;;;;;1.80;0.73;;;17.00;99.90;;;;;;5091495;28;21022;-72
2022/09/26 12:28:25;;;;;;;1.60;0.60;;;17.00;99.90;;;;;;5091403;28;20561;-72
2022/09/26 12:30:57;;;;;;;1.70;0.60;;;17.00;99.90;;;;;;5092408;28;20565;-72
2022/09/26 12:33:54;;;;;;;1.70;0.80;;;17.00;99.90;;;;;;5073339;28;20687;-73
2022/09/26 12:37:04;;;;;;;2.27;0.70;;;17.00;99.90;;;;;;5091556;28;20584;-72
2022/09/26 12:39:40;;;;;;;2.03;0.60;;;17.00;99.90;;;;;;5057041;28;21201;-73
2022/09/26 12:42:24;;;;;;;1.40;0.63;;;17.00;99.90;;;;;;5073228;28;20573;-73
2022/09/26 12:45:41;;;;;;;1.77;0.80;;;16.90;99.90;;;;;;5073279;28;20736;-73
2022/09/26 12:48:19;;;;;;;3.93;0.80;;;16.80;99.90;;;;;;5009098;28;20589;-72
2022/09/26 12:50:50;;;;;;;1.83;0.77;;;16.80;99.90;;;;;;5080460;28;20582;-72
2022/09/26 12:53:57;;;;;;;1.90;0.70;;;16.80;99.90;;;;;;5091260;28;20577;-73
2022/09/26 12:56:41;;;;;;;2.10;0.50;;;16.70;99.90;;;;;;5043688;28;20597;-73
2022/09/26 12:59:22;;;;;;;2.07;0.80;;;16.70;99.90;;;;;;5091429;28;20565;-73
2022/09/26 13:01:48;;;;;;;1.63;1.00;;;16.70;99.90;;;;;;5091356;28;20561;-73
2022/09/26 13:04:51;;;;;;;1.70;0.70;;;16.70;99.90;;;;;;5073042;28;20641;-73
2022/09/26 13:08:08;;;;;;;2.07;0.80;;;16.60;99.90;;;;;;5107127;23;20730;-75
2022/09/26 13:10:57;;;;;;;2.20;0.80;;;16.60;99.90;;;;;;5070918;28;20582;-75
2022/09/26 13:13:53;;;;;;;3.60;0.60;;;16.50;99.90;;;;;;5091660;28;20922;-75
2022/09/26 13:16:26;;;;;;;2.23;0.90;;;16.40;99.90;;;;;;5091470;28;20697;-76
2022/09/26 13:19:02;;;;;;;2.40;0.80;;;16.10;99.90;;;;;;5093852;28;20573;-75
2022/09/26 13:21:53;;;;;;;4.37;0.90;;;16.00;99.90;;;;;;5095340;28;20917;-75
2022/09/26 13:24:41;;;;;;;2.43;1.00;;;15.80;99.90;;;;;;5095334;28;20617;-75
2022/09/26 13:27:16;;;;;;;1.60;0.83;;;15.60;99.90;;;;;;5093881;28;20638;-74
2022/09/26 13:29:45;;;;;;;2.70;1.10;;;15.50;99.90;;;;;;5094196;28;20630;-74
2022/09/26 13:32:22;;;;;;;2.77;1.30;;;15.40;99.90;;;;;;5095358;28;20921;-74
2022/09/26 13:35:00;;;;;;;2.87;1.00;;;15.40;99.90;;;;;;5095295;28;20569;-75
2022/09/26 13:37:40;;;;;;;3.70;1.20;;;15.40;99.90;;;;;;5095378;28;21163;-74
2022/09/26 13:40:49;;;;;;;2.83;1.07;;;15.30;99.90;;;;;;5095195;28;20588;-74
2022/09/26 13:43:46;;;;;;;2.77;0.90;;;15.30;99.90;;;;;;5087478;28;20645;-75
2022/09/26 13:46:34;;;;;;;1.80;0.90;;;15.30;99.90;;;;;;5095258;28;21164;-75
2022/09/26 13:49:16;;;;;;;2.37;1.10;;;15.20;99.90;;;;;;5096105;28;20569;-74
2022/09/26 13:52:11;;;;;;;2.10;1.00;;;15.20;99.90;;;;;;5096297;28;20573;-74
2022/09/26 13:54:56;;;;;;;1.80;1.00;;;15.10;99.90;;;;;;5095286;28;21068;-74
2022/09/26 13:57:30;;;;;;;3.07;1.00;;;15.10;99.90;;;;;;5094546;28;20641;-73